Aérodrome :
LOGIN :

S'inscrire | Disclaimer

   EN    FR    IT 

 










Légende :    VFR   VFR Marginal   IFR   IFR Intensif   IFR Très Intensif
Visi : 
Plafond : 
>= 8 km
>= 3000ft
5 à 8 km
1000 à 3000 ft
1500m à 5 km
500 à 1000 ft
800 à 1500m
200 à 500 ft
< 800m
< 200 ft
Symboles :   Orages  Brouillard  Fortes neiges  Fortes précipitations  Vent > 20 kt
SIGMETs :   Divers  Orages  Givrage  Turbulence  Onde Orograph.  Cendres Volcan.






- Altitude de l'aérodrome : 416 ft
- Code IATA : OVD


LEAS - Asturias

DERNIER METAR :
  • 200300Z AUTO 26007KT CAVOK 05/03 Q1023

METARs EXPIRÉS :
  • 200230Z AUTO 25007KT CAVOK 05/03 Q1024
  • 200200Z AUTO 25007KT CAVOK 05/03 Q1023
  • 200130Z AUTO 25006KT CAVOK 06/03 Q1023
  • 200100Z AUTO 25008KT CAVOK 06/03 Q1024
  • 200030Z AUTO 25007KT CAVOK 06/03 Q1024

TAF TAF LEAS
Valide du 20 à 03h jusqu'au 21 à 03h UTC


200200Z 2003/2103 25008KT CAVOK TX16/2013Z TN03/2007Z
TEMPO 2011/2018 31010KT
PROB40
TEMPO 2018/2103 3000 -RADZ BR BKN012
PROB30
TEMPO 2020/2103 08010KT



MET'MAP, la Météo Aéronautique d'un coup d'oeil ! - Copyright ORBIFLY Décembre 2007 - Disclaimer

ORBIFLY MET'MAP TEAM :

Programmation & Développement : Alexandra Zaïnal
Sur une idée originale de : Baudouin d'Aumeries
Assistance à la programmation : Marc-Olivier Méhu
Soutien technique & logistique : Manuel Goepfert

Contact : metmap@orbifly.com




SOURCES & CREDITS :

   NOAA